X  Cerrar Datos meteorológicos de aviación METAR     EDDS Stuttgart Airport
Temperatura
9°C Temperatura
7°C Punto de rocío
87% Humedad



Viento
8 KM/H
5 MPH
2 M/S
4 NUDO



230°
SO
Condiciones actuales

Ligero  Lluvia Ligero Lluvia
Presión 1006.92 (hPa) - 29.73 (inHg)
Visibilidad 6.2 (milla) - 10 (km)
Aeropuerto
Código de aeropuerto EDDS

localidad: Stuttgart Airport
Distancia: 10 (km)

Metar:
EDDS 260950Z 23004KT 140V290 9999 -RA FEW005 BKN038 09/07 Q1007 NOSIG

Hora: 26-10-2020 10:50 CET